Time;durP1;ratioP1;P1;durP2;ratioP2;P2;SDS_P1;SDS_P2;PMS_P1;PMS_P2;Temp;Humidity;BMP_temperature;BMP_pressure;BME280_temperature;BME280_humidity;BME280_pressure;Samples;Min_cycle;Max_cycle;Signal;HPM_P1;HPM_P2
2023/06/06 00:02:24;;;;;;;4.53;2.45;;;;;;;;;;5078808;28;20234;-52
2023/06/06 00:04:52;;;;;;;3.40;2.00;;;;;;;;;;5081585;28;20254;-52
2023/06/06 00:07:19;;;;;;;2.83;2.05;;;;;;;;;;5077233;28;20255;-52
2023/06/06 00:09:46;;;;;;;4.57;2.42;;;;;;;;;;5074966;28;20322;-51
2023/06/06 00:12:14;;;;;;;5.30;2.55;;;;;;;;;;5077935;28;20239;-52
2023/06/06 00:14:41;;;;;;;3.33;1.70;;;;;;;;;;5077612;28;20299;-51
2023/06/06 00:17:09;;;;;;;1.98;1.77;;;;;;;;;;5078746;28;20238;-52
2023/06/06 00:19:35;;;;;;;2.78;1.95;;;;;;;;;;5082165;28;20238;-50
2023/06/06 00:22:02;;;;;;;2.20;2.00;;;;;;;;;;5078126;28;20229;-52
2023/06/06 00:24:29;;;;;;;2.28;2.08;;;;;;;;;;5077269;28;21700;-52
2023/06/06 00:26:56;;;;;;;2.70;2.20;;;;;;;;;;5080587;27;20242;-52
2023/06/06 00:29:24;;;;;;;2.38;2.17;;;;;;;;;;5078411;28;20237;-52
2023/06/06 00:31:51;;;;;;;3.00;2.55;;;;;;;;;;5077834;28;20288;-51
2023/06/06 00:34:17;;;;;;;2.40;2.03;;;;;;;;;;5077198;28;20654;-53
2023/06/06 00:36:43;;;;;;;4.13;1.90;;;;;;;;;;5075684;28;20230;-56
2023/06/06 00:39:10;;;;;;;2.53;2.08;;;;;;;;;;5082398;28;20683;-51
2023/06/06 00:41:37;;;;;;;3.25;1.92;;;;;;;;;;5075695;28;20317;-51
2023/06/06 00:44:03;;;;;;;2.40;1.90;;;;;;;;;;5080527;28;20226;-53
2023/06/06 00:46:31;;;;;;;2.83;2.08;;;;;;;;;;5077356;28;20574;-54
2023/06/06 00:48:58;;;;;;;3.63;2.10;;;;;;;;;;5072479;28;20234;-52
2023/06/06 00:51:25;;;;;;;3.53;2.00;;;;;;;;;;5078953;28;20238;-51
2023/06/06 00:53:52;;;;;;;8.38;2.28;;;;;;;;;;5075999;28;20238;-52
2023/06/06 00:56:19;;;;;;;2.33;2.13;;;;;;;;;;5073362;28;20230;-52
2023/06/06 00:58:46;;;;;;;4.43;2.20;;;;;;;;;;5080005;28;20237;-52
2023/06/06 01:01:13;;;;;;;2.90;2.20;;;;;;;;;;5075580;28;20284;-52
2023/06/06 01:03:44;;;;;;;2.78;1.92;;;;;;;;;;5071999;28;20237;-51
2023/06/06 01:06:12;;;;;;;2.75;2.35;;;;;;;;;;5073431;28;20731;-52
2023/06/06 01:08:38;;;;;;;2.95;2.30;;;;;;;;;;5076256;28;20788;-51
2023/06/06 01:11:11;;;;;;;3.72;2.92;;;;;;;;;;5090643;28;20231;-54
2023/06/06 01:13:42;;;;;;;5.60;2.20;;;;;;;;;;5089623;28;21025;-51
2023/06/06 01:16:11;;;;;;;3.30;2.20;;;;;;;;;;5094419;28;20233;-51
2023/06/06 01:18:38;;;;;;;2.30;2.15;;;;;;;;;;5096639;28;20231;-51
2023/06/06 01:21:06;;;;;;;2.85;2.15;;;;;;;;;;5091439;28;20284;-52
2023/06/06 01:23:36;;;;;;;2.80;2.03;;;;;;;;;;5083315;28;20268;-52
2023/06/06 01:26:04;;;;;;;2.40;2.17;;;;;;;;;;5084684;28;20613;-52
2023/06/06 01:28:31;;;;;;;3.00;2.63;;;;;;;;;;5077825;28;20235;-52
2023/06/06 01:30:58;;;;;;;3.63;2.25;;;;;;;;;;5084985;28;20226;-51
2023/06/06 01:33:27;;;;;;;2.83;2.35;;;;;;;;;;5083975;28;20242;-51
2023/06/06 01:35:59;;;;;;;2.83;1.85;;;;;;;;;;5081366;28;20241;-52
2023/06/06 01:38:27;;;;;;;2.58;2.28;;;;;;;;;;5082567;28;20219;-52
2023/06/06 01:40:57;;;;;;;3.10;2.03;;;;;;;;;;5082150;28;20240;-52
2023/06/06 01:43:25;;;;;;;2.65;2.42;;;;;;;;;;5083253;28;20247;-50
2023/06/06 01:45:52;;;;;;;2.45;2.20;;;;;;;;;;5076534;28;20242;-53
2023/06/06 01:48:20;;;;;;;3.38;2.17;;;;;;;;;;5083665;28;20758;-52
2023/06/06 01:50:46;;;;;;;4.07;2.70;;;;;;;;;;5079117;28;20252;-52
2023/06/06 01:53:13;;;;;;;3.13;2.08;;;;;;;;;;5080549;28;20230;-53
2023/06/06 01:55:41;;;;;;;2.88;1.75;;;;;;;;;;5081653;28;20241;-51
2023/06/06 01:58:10;;;;;;;2.60;2.40;;;;;;;;;;5080505;28;20235;-51
2023/06/06 02:00:36;;;;;;;5.38;1.92;;;;;;;;;;5079156;28;20269;-51
2023/06/06 02:03:02;;;;;;;4.95;2.33;;;;;;;;;;5077912;28;20238;-52
2023/06/06 02:05:29;;;;;;;2.88;2.10;;;;;;;;;;5079050;28;20318;-51
2023/06/06 02:07:55;;;;;;;2.40;2.20;;;;;;;;;;5074386;28;20840;-53
2023/06/06 02:10:22;;;;;;;4.20;2.05;;;;;;;;;;5065862;28;20393;-51
2023/06/06 02:12:49;;;;;;;2.53;1.92;;;;;;;;;;5073055;28;20227;-51
2023/06/06 02:15:17;;;;;;;3.45;2.42;;;;;;;;;;5070302;28;20230;-52
2023/06/06 02:17:43;;;;;;;2.22;2.10;;;;;;;;;;5079385;28;20273;-52
2023/06/06 02:20:10;;;;;;;3.17;2.60;;;;;;;;;;5076277;28;20688;-51
2023/06/06 02:22:37;;;;;;;2.40;2.20;;;;;;;;;;5071134;28;20242;-52
2023/06/06 02:25:04;;;;;;;4.18;3.22;;;;;;;;;;5084807;28;20230;-51
2023/06/06 02:27:32;;;;;;;5.43;3.33;;;;;;;;;;5079925;28;20254;-52
2023/06/06 02:29:58;;;;;;;2.75;2.53;;;;;;;;;;5070346;28;20305;-52
2023/06/06 02:32:26;;;;;;;2.75;2.10;;;;;;;;;;5079206;28;20231;-53
2023/06/06 02:34:55;;;;;;;3.35;2.40;;;;;;;;;;5073995;28;20234;-52
2023/06/06 02:37:23;;;;;;;3.15;2.78;;;;;;;;;;5076977;28;20304;-53
2023/06/06 02:39:50;;;;;;;2.20;2.00;;;;;;;;;;5085894;28;20272;-53
2023/06/06 02:42:16;;;;;;;2.15;2.00;;;;;;;;;;5082588;28;20234;-52
2023/06/06 02:44:43;;;;;;;3.35;2.50;;;;;;;;;;5083556;28;20324;-52
2023/06/06 02:47:09;;;;;;;2.50;2.30;;;;;;;;;;5079953;28;20315;-52
2023/06/06 02:49:37;;;;;;;2.67;2.28;;;;;;;;;;5079026;27;20245;-52
2023/06/06 02:52:05;;;;;;;2.70;1.95;;;;;;;;;;5078979;28;20238;-53
2023/06/06 02:54:31;;;;;;;2.22;2.03;;;;;;;;;;5078479;28;20226;-52
2023/06/06 02:56:58;;;;;;;3.90;2.08;;;;;;;;;;5079896;28;20313;-52
2023/06/06 02:59:24;;;;;;;3.13;2.35;;;;;;;;;;5081224;28;20227;-52
2023/06/06 03:01:51;;;;;;;3.60;2.17;;;;;;;;;;5075728;28;20658;-52
2023/06/06 03:04:17;;;;;;;3.05;2.47;;;;;;;;;;5079930;28;20284;-53
2023/06/06 03:06:48;;;;;;;3.15;2.25;;;;;;;;;;5081653;28;20234;-51
2023/06/06 03:09:14;;;;;;;3.38;2.20;;;;;;;;;;5082897;28;20254;-53
2023/06/06 03:11:41;;;;;;;2.80;2.17;;;;;;;;;;5081099;28;20237;-51
2023/06/06 03:14:08;;;;;;;2.42;2.00;;;;;;;;;;5074427;28;20233;-52
2023/06/06 03:16:35;;;;;;;4.70;2.38;;;;;;;;;;5081986;28;20249;-51
2023/06/06 03:19:03;;;;;;;4.15;2.88;;;;;;;;;;5080650;28;20376;-52
2023/06/06 03:21:30;;;;;;;2.72;2.42;;;;;;;;;;5071017;27;20226;-52
2023/06/06 03:23:58;;;;;;;2.95;2.30;;;;;;;;;;5076323;28;20242;-52
2023/06/06 03:26:26;;;;;;;2.30;2.10;;;;;;;;;;5078470;28;20231;-51
2023/06/06 03:28:53;;;;;;;5.28;2.40;;;;;;;;;;5079907;28;20685;-51
2023/06/06 03:31:23;;;;;;;5.57;2.67;;;;;;;;;;5080896;27;20231;-51
2023/06/06 03:33:50;;;;;;;4.10;2.42;;;;;;;;;;5079824;28;20317;-50
2023/06/06 03:36:17;;;;;;;3.97;3.05;;;;;;;;;;5080726;28;20288;-52
2023/06/06 03:38:43;;;;;;;3.05;2.08;;;;;;;;;;5079309;28;20758;-51
2023/06/06 03:41:11;;;;;;;4.25;1.60;;;;;;;;;;5072791;28;20237;-51
2023/06/06 03:43:38;;;;;;;3.20;2.30;;;;;;;;;;5079626;28;20238;-56
2023/06/06 03:46:04;;;;;;;2.60;2.40;;;;;;;;;;5096232;28;20482;-51
2023/06/06 03:48:31;;;;;;;2.65;2.00;;;;;;;;;;5095126;28;20230;-51
2023/06/06 03:50:57;;;;;;;3.38;2.58;;;;;;;;;;5095490;28;20277;-53
2023/06/06 03:53:24;;;;;;;2.20;2.00;;;;;;;;;;5096833;28;20235;-51
2023/06/06 03:55:50;;;;;;;2.78;2.40;;;;;;;;;;5087488;28;20647;-52
2023/06/06 03:58:20;;;;;;;3.00;2.20;;;;;;;;;;5077892;28;20245;-52
2023/06/06 04:00:47;;;;;;;3.30;2.20;;;;;;;;;;5079292;28;20237;-52
2023/06/06 04:03:13;;;;;;;5.70;2.67;;;;;;;;;;5079403;28;20230;-52
2023/06/06 04:05:40;;;;;;;5.85;2.65;;;;;;;;;;5078795;28;20234;-51
2023/06/06 04:08:07;;;;;;;2.60;2.17;;;;;;;;;;5080401;28;20283;-50
2023/06/06 04:10:34;;;;;;;2.88;2.10;;;;;;;;;;5076513;28;20324;-52
2023/06/06 04:13:01;;;;;;;3.45;2.60;;;;;;;;;;5080549;28;20230;-53
2023/06/06 04:15:29;;;;;;;5.13;2.40;;;;;;;;;;5074934;28;20708;-52
2023/06/06 04:17:55;;;;;;;3.03;2.30;;;;;;;;;;5071056;28;20230;-51
2023/06/06 04:20:22;;;;;;;8.00;2.90;;;;;;;;;;5070076;28;21019;-51
2023/06/06 04:22:49;;;;;;;4.22;2.67;;;;;;;;;;5074924;28;20322;-51
2023/06/06 04:25:17;;;;;;;8.13;2.38;;;;;;;;;;5069466;28;20226;-52
2023/06/06 04:27:44;;;;;;;4.85;3.20;;;;;;;;;;5070214;28;20313;-51
2023/06/06 04:30:12;;;;;;;5.75;3.58;;;;;;;;;;5075306;28;20237;-52
2023/06/06 04:32:40;;;;;;;3.00;2.70;;;;;;;;;;5075975;28;20261;-51
2023/06/06 04:35:09;;;;;;;5.93;3.25;;;;;;;;;;5072498;28;20230;-52
2023/06/06 04:37:37;;;;;;;4.63;3.08;;;;;;;;;;5071259;28;20728;-52
2023/06/06 04:40:06;;;;;;;5.20;3.50;;;;;;;;;;5068531;28;20350;-52
2023/06/06 04:42:35;;;;;;;4.63;3.20;;;;;;;;;;5068623;28;20245;-55
2023/06/06 04:45:02;;;;;;;4.68;2.80;;;;;;;;;;5073402;28;20226;-53
2023/06/06 04:47:29;;;;;;;5.15;2.55;;;;;;;;;;5075291;28;20223;-51
2023/06/06 04:49:57;;;;;;;6.28;3.08;;;;;;;;;;5076764;28;20314;-52
2023/06/06 04:52:24;;;;;;;4.07;2.65;;;;;;;;;;5084900;27;20238;-52
2023/06/06 04:54:51;;;;;;;4.32;3.30;;;;;;;;;;5096011;28;20355;-53
2023/06/06 04:57:19;;;;;;;6.28;2.70;;;;;;;;;;5076170;27;20342;-52
2023/06/06 04:59:50;;;;;;;3.95;3.08;;;;;;;;;;5081863;28;20660;-52
2023/06/06 05:02:18;;;;;;;5.32;3.75;;;;;;;;;;5070805;27;20288;-53
2023/06/06 05:04:45;;;;;;;6.43;3.42;;;;;;;;;;5081253;27;20234;-53
2023/06/06 05:07:13;;;;;;;5.15;2.92;;;;;;;;;;5084767;27;20245;-52
2023/06/06 05:09:40;;;;;;;5.13;2.35;;;;;;;;;;5079694;27;20231;-52
2023/06/06 05:12:06;;;;;;;5.53;3.28;;;;;;;;;;5081444;27;20282;-51
2023/06/06 05:14:33;;;;;;;5.68;3.10;;;;;;;;;;5072690;27;20236;-52
2023/06/06 05:17:00;;;;;;;3.50;2.30;;;;;;;;;;5080936;27;20865;-52
2023/06/06 05:19:26;;;;;;;4.18;2.70;;;;;;;;;;5081170;27;20225;-51
2023/06/06 05:21:53;;;;;;;2.90;2.60;;;;;;;;;;5078880;27;20313;-54
2023/06/06 05:24:21;;;;;;;3.03;2.70;;;;;;;;;;5080265;27;20229;-52
2023/06/06 05:26:48;;;;;;;4.60;2.72;;;;;;;;;;5077644;28;20233;-52
2023/06/06 05:29:15;;;;;;;3.95;2.83;;;;;;;;;;5079862;27;20287;-53
2023/06/06 05:31:41;;;;;;;2.95;2.25;;;;;;;;;;5078899;28;20315;-52
2023/06/06 05:34:08;;;;;;;5.28;2.90;;;;;;;;;;5077687;27;20242;-51
2023/06/06 05:36:34;;;;;;;4.65;2.53;;;;;;;;;;5077578;27;20230;-52
2023/06/06 05:39:03;;;;;;;5.55;2.20;;;;;;;;;;5081373;27;20242;-52
2023/06/06 05:41:31;;;;;;;2.58;2.38;;;;;;;;;;5083426;27;20253;-52
2023/06/06 05:43:58;;;;;;;2.60;2.40;;;;;;;;;;5083068;27;20374;-54
2023/06/06 05:46:26;;;;;;;2.00;1.90;;;;;;;;;;5077459;27;20237;-52
2023/06/06 05:48:52;;;;;;;6.07;3.40;;;;;;;;;;5070298;27;20237;-51
2023/06/06 05:51:19;;;;;;;3.50;2.67;;;;;;;;;;5083957;27;20723;-52
2023/06/06 05:53:46;;;;;;;4.75;2.75;;;;;;;;;;5087329;27;20236;-51
2023/06/06 05:56:12;;;;;;;9.75;3.92;;;;;;;;;;5086905;27;20302;-51
2023/06/06 05:58:40;;;;;;;6.93;3.42;;;;;;;;;;5085560;27;20230;-51
2023/06/06 06:01:08;;;;;;;6.22;3.00;;;;;;;;;;5083434;27;20242;-53
2023/06/06 06:03:35;;;;;;;7.05;3.28;;;;;;;;;;5078577;28;20235;-51
2023/06/06 06:06:05;;;;;;;9.48;2.88;;;;;;;;;;5085857;28;20628;-52
2023/06/06 06:08:33;;;;;;;3.83;2.72;;;;;;;;;;5082644;28;20345;-52
2023/06/06 06:11:00;;;;;;;4.32;2.55;;;;;;;;;;5081724;28;20238;-52
2023/06/06 06:13:26;;;;;;;5.88;3.30;;;;;;;;;;5077832;28;20234;-51
2023/06/06 06:15:54;;;;;;;5.35;2.92;;;;;;;;;;5077245;28;20239;-51
2023/06/06 06:18:21;;;;;;;3.75;3.38;;;;;;;;;;5084223;28;20280;-55
2023/06/06 06:20:48;;;;;;;3.85;2.70;;;;;;;;;;5094264;28;20766;-52
2023/06/06 06:23:15;;;;;;;4.82;2.97;;;;;;;;;;5089457;28;20238;-52
2023/06/06 06:25:41;;;;;;;4.28;2.53;;;;;;;;;;5088984;28;20241;-52
2023/06/06 06:28:18;;;;;;;3.25;2.58;;;;;;;;;;5093937;28;20356;-52
2023/06/06 06:30:45;;;;;;;3.10;2.80;;;;;;;;;;5080378;28;20222;-52
2023/06/06 06:33:13;;;;;;;8.45;3.25;;;;;;;;;;5083198;28;20322;-52
2023/06/06 06:35:40;;;;;;;3.05;2.75;;;;;;;;;;5077035;28;20235;-52
2023/06/06 06:38:06;;;;;;;7.55;3.15;;;;;;;;;;5078049;28;21817;-51
2023/06/06 06:40:33;;;;;;;9.25;3.30;;;;;;;;;;5078624;28;20259;-51
2023/06/06 06:42:59;;;;;;;8.02;3.20;;;;;;;;;;5083073;28;20778;-53
2023/06/06 06:45:26;;;;;;;3.30;3.00;;;;;;;;;;5082241;28;20227;-54
2023/06/06 06:47:53;;;;;;;4.32;2.70;;;;;;;;;;5076660;28;20226;-52
2023/06/06 06:50:21;;;;;;;3.08;2.78;;;;;;;;;;5081442;28;20231;-51
2023/06/06 06:52:48;;;;;;;5.60;3.03;;;;;;;;;;5080179;28;20241;-52
2023/06/06 06:55:16;;;;;;;4.30;2.65;;;;;;;;;;5076596;28;20223;-54
2023/06/06 06:57:43;;;;;;;3.35;3.05;;;;;;;;;;5081730;28;20748;-53
2023/06/06 07:00:15;;;;;;;3.25;2.58;;;;;;;;;;5087194;28;20785;-51
2023/06/06 07:02:42;;;;;;;4.10;2.88;;;;;;;;;;5083282;28;20318;-54
2023/06/06 07:05:09;;;;;;;5.60;2.72;;;;;;;;;;5069882;28;20234;-53
2023/06/06 07:07:42;;;;;;;7.10;2.58;;;;;;;;;;5091252;28;20230;-50
2023/06/06 07:10:09;;;;;;;5.60;2.80;;;;;;;;;;5086235;28;20268;-52
2023/06/06 07:12:36;;;;;;;3.22;2.50;;;;;;;;;;5086755;28;20235;-53
2023/06/06 07:15:02;;;;;;;9.90;4.35;;;;;;;;;;5086410;28;20845;-50
2023/06/06 07:17:29;;;;;;;6.38;5.25;;;;;;;;;;5087066;28;20230;-57
2023/06/06 07:19:56;;;;;;;4.00;3.08;;;;;;;;;;5084654;28;20231;-52
2023/06/06 07:22:23;;;;;;;3.30;3.00;;;;;;;;;;5083144;28;20234;-51
2023/06/06 07:24:50;;;;;;;8.70;3.10;;;;;;;;;;5088142;28;20276;-53
2023/06/06 07:27:18;;;;;;;4.20;2.85;;;;;;;;;;5085878;28;20642;-52
2023/06/06 07:29:44;;;;;;;8.13;3.22;;;;;;;;;;5086940;28;20593;-52
2023/06/06 07:32:11;;;;;;;7.90;3.13;;;;;;;;;;5084018;28;20230;-52
2023/06/06 07:34:38;;;;;;;8.07;3.08;;;;;;;;;;5083653;28;20234;-52
2023/06/06 07:37:04;;;;;;;3.97;2.90;;;;;;;;;;5081636;28;20426;-52
2023/06/06 07:39:31;;;;;;;3.33;3.03;;;;;;;;;;5078823;28;20277;-53
2023/06/06 07:41:59;;;;;;;5.10;3.25;;;;;;;;;;5078997;28;20223;-52
2023/06/06 07:44:25;;;;;;;3.83;3.33;;;;;;;;;;5075554;28;20219;-51
2023/06/06 07:46:52;;;;;;;3.47;3.17;;;;;;;;;;5077312;28;20239;-51
2023/06/06 07:49:18;;;;;;;7.30;2.65;;;;;;;;;;5084111;28;20763;-51
2023/06/06 07:51:47;;;;;;;5.30;3.65;;;;;;;;;;5071487;28;20285;-53
2023/06/06 07:54:14;;;;;;;6.65;3.90;;;;;;;;;;5069148;28;20272;-51
2023/06/06 07:56:41;;;;;;;4.78;3.63;;;;;;;;;;5073261;28;20318;-53
2023/06/06 07:59:09;;;;;;;7.43;3.35;;;;;;;;;;5083987;28;20751;-53
2023/06/06 08:01:37;;;;;;;3.20;2.92;;;;;;;;;;5074772;28;20231;-52
2023/06/06 08:04:07;;;;;;;3.63;3.28;;;;;;;;;;5075035;28;20938;-52
2023/06/06 08:06:37;;;;;;;2.95;2.75;;;;;;;;;;5073750;28;20796;-53
2023/06/06 08:09:06;;;;;;;4.57;3.55;;;;;;;;;;5071315;28;20728;-50
2023/06/06 08:11:32;;;;;;;4.45;2.70;;;;;;;;;;5072279;28;20243;-52
2023/06/06 08:13:59;;;;;;;6.18;3.75;;;;;;;;;;5082237;28;20714;-54
2023/06/06 08:16:27;;;;;;;5.72;3.50;;;;;;;;;;5082289;28;20226;-53
2023/06/06 08:18:54;;;;;;;4.68;3.20;;;;;;;;;;5082200;28;20238;-51
2023/06/06 08:21:22;;;;;;;5.45;3.75;;;;;;;;;;5079725;28;20226;-52
2023/06/06 08:23:49;;;;;;;7.65;3.38;;;;;;;;;;5083437;28;20764;-53
2023/06/06 08:26:15;;;;;;;5.57;2.53;;;;;;;;;;5079381;28;20762;-51
2023/06/06 08:28:43;;;;;;;6.32;3.45;;;;;;;;;;5076525;28;20255;-53
2023/06/06 08:31:14;;;;;;;3.90;3.35;;;;;;;;;;5080258;28;20233;-52
2023/06/06 08:33:42;;;;;;;7.85;5.07;;;;;;;;;;5081865;28;20929;-50
2023/06/06 08:36:09;;;;;;;9.35;5.75;;;;;;;;;;5077096;28;20230;-52
2023/06/06 08:38:36;;;;;;;5.10;4.20;;;;;;;;;;5075376;28;20238;-51
2023/06/06 08:41:02;;;;;;;7.20;3.85;;;;;;;;;;5075024;28;20257;-53
2023/06/06 08:43:30;;;;;;;5.50;4.55;;;;;;;;;;5071138;28;20800;-51
2023/06/06 08:45:58;;;;;;;7.95;3.20;;;;;;;;;;5078356;28;20313;-51
2023/06/06 08:48:28;;;;;;;4.57;3.20;;;;;;;;;;5083170;28;20234;-52
2023/06/06 08:50:56;;;;;;;6.35;3.55;;;;;;;;;;5076835;28;20246;-51
2023/06/06 08:53:23;;;;;;;4.30;3.42;;;;;;;;;;5079670;28;20787;-52
2023/06/06 08:55:50;;;;;;;3.20;2.90;;;;;;;;;;5082791;28;20231;-51
2023/06/06 08:58:17;;;;;;;4.65;2.80;;;;;;;;;;5086518;28;20234;-50
2023/06/06 09:00:44;;;;;;;6.13;3.70;;;;;;;;;;5078740;28;20254;-51
2023/06/06 09:03:12;;;;;;;4.95;3.92;;;;;;;;;;5083005;28;20233;-51
2023/06/06 09:05:39;;;;;;;6.47;3.30;;;;;;;;;;5076558;28;20230;-50
2023/06/06 09:08:07;;;;;;;9.15;3.70;;;;;;;;;;5077859;28;20235;-52
2023/06/06 09:10:34;;;;;;;8.23;3.90;;;;;;;;;;5079777;28;20249;-55
2023/06/06 09:13:00;;;;;;;7.65;3.90;;;;;;;;;;5078186;28;20229;-52
2023/06/06 09:15:27;;;;;;;4.70;3.40;;;;;;;;;;5076779;28;22290;-52
2023/06/06 09:17:54;;;;;;;3.65;2.92;;;;;;;;;;5081388;28;20235;-54
2023/06/06 09:20:20;;;;;;;3.40;3.10;;;;;;;;;;5084159;28;20258;-51
2023/06/06 09:22:48;;;;;;;8.13;3.38;;;;;;;;;;5075253;28;20321;-57
2023/06/06 09:25:18;;;;;;;6.68;3.45;;;;;;;;;;5086037;28;20226;-53
2023/06/06 09:27:45;;;;;;;4.57;3.33;;;;;;;;;;5083736;28;20707;-52
2023/06/06 09:30:19;;;;;;;4.45;3.13;;;;;;;;;;5089137;28;20248;-53
2023/06/06 09:32:46;;;;;;;4.25;3.33;;;;;;;;;;5077616;28;20235;-52
2023/06/06 09:35:14;;;;;;;4.25;3.45;;;;;;;;;;5081740;28;20237;-52
2023/06/06 09:37:40;;;;;;;6.60;3.80;;;;;;;;;;5085407;28;20230;-52
2023/06/06 09:40:10;;;;;;;8.48;4.07;;;;;;;;;;5081458;28;20248;-51
2023/06/06 09:42:40;;;;;;;3.97;3.10;;;;;;;;;;5085672;28;20317;-52
2023/06/06 09:45:11;;;;;;;4.43;3.30;;;;;;;;;;5084215;28;20234;-50
2023/06/06 09:47:39;;;;;;;3.53;3.20;;;;;;;;;;5083810;28;20245;-51
2023/06/06 09:50:06;;;;;;;7.10;4.03;;;;;;;;;;5076664;28;20793;-53
2023/06/06 09:52:33;;;;;;;3.88;3.17;;;;;;;;;;5082918;28;20239;-52
2023/06/06 09:55:00;;;;;;;5.43;3.35;;;;;;;;;;5084973;28;20322;-51
2023/06/06 09:57:27;;;;;;;3.90;3.50;;;;;;;;;;5090174;28;20218;-51
2023/06/06 09:59:55;;;;;;;7.00;3.58;;;;;;;;;;5074844;28;20235;-51
2023/06/06 10:02:23;;;;;;;5.03;4.28;;;;;;;;;;5084412;28;20594;-55
2023/06/06 10:04:50;;;;;;;3.78;3.45;;;;;;;;;;5087292;28;20329;-53
2023/06/06 10:07:17;;;;;;;4.53;3.80;;;;;;;;;;5088061;28;20592;-52
2023/06/06 10:09:44;;;;;;;5.40;4.00;;;;;;;;;;5087627;28;20280;-53
2023/06/06 10:12:11;;;;;;;6.55;5.10;;;;;;;;;;5084459;28;20234;-51
2023/06/06 10:14:38;;;;;;;5.43;3.70;;;;;;;;;;5086406;28;20235;-53
2023/06/06 10:17:07;;;;;;;4.80;4.13;;;;;;;;;;5085120;28;20241;-51
2023/06/06 10:19:33;;;;;;;6.32;4.40;;;;;;;;;;5085523;28;20230;-50
2023/06/06 10:22:01;;;;;;;4.60;3.53;;;;;;;;;;5083326;28;20779;-50
2023/06/06 10:24:27;;;;;;;7.03;4.00;;;;;;;;;;5082473;28;20309;-51
2023/06/06 10:26:58;;;;;;;3.92;3.20;;;;;;;;;;5085476;28;20222;-51
2023/06/06 10:29:30;;;;;;;5.65;3.25;;;;;;;;;;5080702;28;20317;-52
2023/06/06 10:31:58;;;;;;;3.80;3.50;;;;;;;;;;5085671;28;20262;-51
2023/06/06 10:34:28;;;;;;;5.50;3.55;;;;;;;;;;5078037;28;20751;-52
2023/06/06 10:36:56;;;;;;;7.55;4.97;;;;;;;;;;5082741;28;21126;-52
2023/06/06 10:39:23;;;;;;;6.55;4.10;;;;;;;;;;5079589;28;20226;-53
2023/06/06 10:41:54;;;;;;;5.78;3.97;;;;;;;;;;5081424;28;20244;-50
2023/06/06 10:44:28;;;;;;;5.85;3.42;;;;;;;;;;5085308;28;20226;-51
2023/06/06 10:47:13;;;;;;;14.68;3.95;;;;;;;;;;5085878;28;20229;-51
2023/06/06 10:50:02;;;;;;;4.80;3.70;;;;;;;;;;5080773;28;20859;-51
2023/06/06 10:52:28;;;;;;;3.42;3.15;;;;;;;;;;5077464;28;20272;-53
2023/06/06 10:54:58;;;;;;;6.22;4.60;;;;;;;;;;5077803;28;20230;-54
2023/06/06 10:57:24;;;;;;;4.78;4.13;;;;;;;;;;5086950;28;20231;-51
2023/06/06 10:59:51;;;;;;;7.30;3.78;;;;;;;;;;5085784;28;20253;-52
2023/06/06 11:02:32;;;;;;;5.53;3.13;;;;;;;;;;5082223;28;20266;-55
2023/06/06 11:05:03;;;;;;;4.38;3.58;;;;;;;;;;5076332;28;20257;-52
2023/06/06 11:07:29;;;;;;;5.22;3.80;;;;;;;;;;5079123;28;20412;-52
2023/06/06 11:09:56;;;;;;;3.67;3.38;;;;;;;;;;5078445;28;20230;-53
2023/06/06 11:12:24;;;;;;;5.68;3.38;;;;;;;;;;5084880;28;20248;-54
2023/06/06 11:14:57;;;;;;;6.43;3.28;;;;;;;;;;5086389;28;20234;-53
2023/06/06 11:17:27;;;;;;;6.18;3.00;;;;;;;;;;5083994;28;20256;-53
2023/06/06 11:19:54;;;;;;;3.85;3.55;;;;;;;;;;5085028;28;20234;-52
2023/06/06 11:22:25;;;;;;;5.05;3.45;;;;;;;;;;5080664;28;20231;-53
2023/06/06 11:24:51;;;;;;;4.82;3.63;;;;;;;;;;5082052;28;20310;-51
2023/06/06 11:27:18;;;;;;;5.07;3.80;;;;;;;;;;5088886;28;20338;-52
2023/06/06 11:29:45;;;;;;;4.68;3.53;;;;;;;;;;5090941;28;20326;-51
2023/06/06 11:32:12;;;;;;;8.70;4.00;;;;;;;;;;5090171;28;20241;-51
2023/06/06 11:34:39;;;;;;;5.45;4.38;;;;;;;;;;5089399;28;20240;-50
2023/06/06 11:37:06;;;;;;;3.80;3.50;;;;;;;;;;5087879;28;20310;-53
2023/06/06 11:39:34;;;;;;;4.15;3.63;;;;;;;;;;5086980;28;20235;-53
2023/06/06 11:42:01;;;;;;;5.45;3.00;;;;;;;;;;5077803;28;20721;-52
2023/06/06 11:44:35;;;;;;;3.72;3.42;;;;;;;;;;5082350;28;20233;-50
2023/06/06 11:47:03;;;;;;;3.70;3.10;;;;;;;;;;5080804;28;20241;-52
2023/06/06 11:49:30;;;;;;;8.63;4.03;;;;;;;;;;5084902;28;20233;-51
2023/06/06 11:51:57;;;;;;;4.97;3.10;;;;;;;;;;5085381;28;20709;-52
2023/06/06 11:54:24;;;;;;;10.60;4.15;;;;;;;;;;5085850;28;20288;-50
2023/06/06 11:56:52;;;;;;;5.43;4.10;;;;;;;;;;5085909;28;20230;-51
2023/06/06 11:59:20;;;;;;;5.90;3.85;;;;;;;;;;5084074;28;20234;-51
2023/06/06 12:01:49;;;;;;;4.38;3.00;;;;;;;;;;5069068;28;20302;-53
2023/06/06 12:04:15;;;;;;;3.60;3.25;;;;;;;;;;5068548;28;20777;-52
2023/06/06 12:06:45;;;;;;;3.60;3.30;;;;;;;;;;5084076;28;20302;-52
2023/06/06 12:09:12;;;;;;;5.40;3.67;;;;;;;;;;5083922;28;20238;-51
2023/06/06 12:11:48;;;;;;;4.38;2.90;;;;;;;;;;5085014;28;20292;-53
2023/06/06 12:14:16;;;;;;;6.63;3.55;;;;;;;;;;5091236;27;20253;-52
2023/06/06 12:16:43;;;;;;;3.08;2.85;;;;;;;;;;5079558;28;20236;-52
2023/06/06 12:19:12;;;;;;;4.03;3.60;;;;;;;;;;5080323;28;20425;-53
2023/06/06 12:21:48;;;;;;;4.93;4.13;;;;;;;;;;5073314;28;20239;-51
2023/06/06 12:24:18;;;;;;;8.60;3.35;;;;;;;;;;5077835;28;20696;-53
2023/06/06 12:26:51;;;;;;;4.00;3.38;;;;;;;;;;5084137;28;20306;-52
2023/06/06 12:29:19;;;;;;;5.00;3.67;;;;;;;;;;5077563;28;20222;-52
2023/06/06 12:31:46;;;;;;;5.50;3.47;;;;;;;;;;5075871;28;20241;-51
2023/06/06 12:34:13;;;;;;;5.72;3.92;;;;;;;;;;5081389;28;20223;-52
2023/06/06 12:36:39;;;;;;;5.75;4.13;;;;;;;;;;5081597;28;20238;-52
2023/06/06 12:39:07;;;;;;;3.83;3.42;;;;;;;;;;5081078;28;20313;-51
2023/06/06 12:41:36;;;;;;;5.43;3.55;;;;;;;;;;5080359;28;20234;-52
2023/06/06 12:44:06;;;;;;;4.22;3.13;;;;;;;;;;5080422;28;20241;-53
2023/06/06 12:46:34;;;;;;;4.15;3.10;;;;;;;;;;5076160;28;20222;-51
2023/06/06 12:49:01;;;;;;;3.33;3.13;;;;;;;;;;5082287;28;20314;-51
2023/06/06 12:51:27;;;;;;;6.40;3.92;;;;;;;;;;5081681;28;20727;-50
2023/06/06 12:53:54;;;;;;;4.28;3.88;;;;;;;;;;5083112;28;20234;-52
2023/06/06 12:56:20;;;;;;;4.25;3.25;;;;;;;;;;5083755;28;20272;-52
2023/06/06 12:58:46;;;;;;;5.00;4.07;;;;;;;;;;5084905;28;20326;-53
2023/06/06 13:01:13;;;;;;;3.60;3.30;;;;;;;;;;5082898;28;20692;-52
2023/06/06 13:03:41;;;;;;;3.33;2.97;;;;;;;;;;5082567;28;20632;-52
2023/06/06 13:06:07;;;;;;;5.55;3.95;;;;;;;;;;5081583;28;20224;-52
2023/06/06 13:08:33;;;;;;;4.65;3.55;;;;;;;;;;5081063;28;20321;-51
2023/06/06 13:11:00;;;;;;;4.30;3.10;;;;;;;;;;5076899;28;20227;-52
2023/06/06 13:13:26;;;;;;;6.10;3.30;;;;;;;;;;5084621;28;20288;-52
2023/06/06 13:15:53;;;;;;;4.32;3.55;;;;;;;;;;5079176;28;20234;-52
2023/06/06 13:18:20;;;;;;;3.75;3.40;;;;;;;;;;5083570;28;20227;-53
2023/06/06 13:20:47;;;;;;;3.75;3.42;;;;;;;;;;5083801;28;20227;-54
2023/06/06 13:23:14;;;;;;;3.28;3.08;;;;;;;;;;5085923;28;20824;-52
2023/06/06 13:25:40;;;;;;;6.78;3.97;;;;;;;;;;5082845;28;20321;-51
2023/06/06 13:28:07;;;;;;;3.45;3.15;;;;;;;;;;5083897;28;20235;-51
2023/06/06 13:30:33;;;;;;;3.75;2.88;;;;;;;;;;5086056;28;20262;-53
2023/06/06 13:32:59;;;;;;;5.70;3.78;;;;;;;;;;5086986;28;20690;-52
2023/06/06 13:35:26;;;;;;;3.42;3.13;;;;;;;;;;5087441;28;20313;-53
2023/06/06 13:37:54;;;;;;;5.10;3.70;;;;;;;;;;5092321;28;20656;-53
2023/06/06 13:40:21;;;;;;;8.98;4.22;;;;;;;;;;5083428;28;20342;-52
2023/06/06 13:42:47;;;;;;;4.72;3.47;;;;;;;;;;5085093;28;20239;-53
2023/06/06 13:45:14;;;;;;;4.45;3.97;;;;;;;;;;5084410;28;20314;-52
2023/06/06 13:47:40;;;;;;;5.10;3.88;;;;;;;;;;5088113;28;20314;-51
2023/06/06 13:50:07;;;;;;;4.53;4.13;;;;;;;;;;5088656;28;20321;-52
2023/06/06 13:52:34;;;;;;;4.10;3.65;;;;;;;;;;5089950;28;20234;-52
2023/06/06 13:55:04;;;;;;;6.38;4.10;;;;;;;;;;5087234;28;20227;-52
2023/06/06 13:57:31;;;;;;;3.50;3.20;;;;;;;;;;5081454;28;20231;-53
2023/06/06 13:59:57;;;;;;;3.95;3.65;;;;;;;;;;5083544;28;20241;-52
2023/06/06 14:02:24;;;;;;;4.07;3.63;;;;;;;;;;5087304;28;20237;-50
2023/06/06 14:04:50;;;;;;;4.47;4.07;;;;;;;;;;5084622;28;20230;-54
2023/06/06 14:07:17;;;;;;;4.53;4.13;;;;;;;;;;5081506;28;20231;-51
2023/06/06 14:09:43;;;;;;;3.67;3.35;;;;;;;;;;5087050;28;20338;-50
2023/06/06 14:12:11;;;;;;;10.52;4.65;;;;;;;;;;5079089;28;20636;-54
2023/06/06 14:14:38;;;;;;;5.63;4.45;;;;;;;;;;5081479;28;20226;-51
2023/06/06 14:17:04;;;;;;;4.18;3.78;;;;;;;;;;5083505;28;20317;-52
2023/06/06 14:19:37;;;;;;;5.35;3.60;;;;;;;;;;5078408;28;20241;-53
2023/06/06 14:22:24;;;;;;;6.55;4.18;;;;;;;;;;5071606;28;20296;-51
2023/06/06 14:24:51;;;;;;;4.30;3.90;;;;;;;;;;5083975;28;20227;-52
2023/06/06 14:27:19;;;;;;;4.07;3.78;;;;;;;;;;5080064;28;20234;-50
2023/06/06 14:29:46;;;;;;;8.35;4.00;;;;;;;;;;5078105;28;20299;-51
2023/06/06 14:32:12;;;;;;;4.15;3.35;;;;;;;;;;5085528;28;20735;-52
2023/06/06 14:34:39;;;;;;;5.00;3.63;;;;;;;;;;5083725;28;20315;-52
2023/06/06 14:37:06;;;;;;;4.47;4.07;;;;;;;;;;5086689;28;20322;-53
2023/06/06 14:39:32;;;;;;;5.47;3.90;;;;;;;;;;5079816;28;20245;-53
2023/06/06 14:41:59;;;;;;;4.28;3.78;;;;;;;;;;5079361;28;20322;-53
2023/06/06 14:44:30;;;;;;;4.72;3.90;;;;;;;;;;5087630;28;20311;-51
2023/06/06 14:46:57;;;;;;;5.72;4.55;;;;;;;;;;5077506;28;20234;-52